Time;durP1;ratioP1;P1;durP2;ratioP2;P2;SDS_P1;SDS_P2;PMS_P1;PMS_P2;Temp;Humidity;BMP_temperature;BMP_pressure;BME280_temperature;BME280_humidity;BME280_pressure;Samples;Min_cycle;Max_cycle;Signal;HPM_P1;HPM_P2
2022/11/23 00:01:26;;;;;;;29.20;19.30;;;7.10;99.90;;;;;;5032994;28;20452;-73
2022/11/23 00:03:57;;;;;;;27.35;19.60;;;7.10;99.90;;;;;;5042684;28;20409;-73
2022/11/23 00:06:24;;;;;;;25.10;19.10;;;7.10;99.90;;;;;;5037549;28;20748;-73
2022/11/23 00:08:51;;;;;;;26.80;19.50;;;7.10;99.90;;;;;;5044346;28;20481;-73
2022/11/23 00:11:17;;;;;;;29.40;19.85;;;7.10;99.90;;;;;;5043608;28;20499;-74
2022/11/23 00:13:43;;;;;;;27.97;19.33;;;7.10;99.90;;;;;;5044528;28;20410;-73
2022/11/23 00:16:13;;;;;;;27.98;19.55;;;7.10;99.90;;;;;;5043684;28;20494;-73
2022/11/23 00:18:39;;;;;;;27.33;20.20;;;7.10;99.90;;;;;;5032328;28;20409;-73
2022/11/23 00:21:09;;;;;;;29.75;19.83;;;7.20;99.90;;;;;;5037592;28;20530;-73
2022/11/23 00:23:35;;;;;;;31.23;20.17;;;7.20;99.90;;;;;;5038175;28;20805;-73
2022/11/23 00:26:02;;;;;;;30.17;21.30;;;7.10;99.90;;;;;;5028047;28;20916;-73
2022/11/23 00:28:28;;;;;;;33.63;21.08;;;7.20;99.90;;;;;;5050418;28;20811;-73
2022/11/23 00:30:53;;;;;;;30.73;21.57;;;7.10;99.90;;;;;;5036965;28;20423;-73
2022/11/23 00:33:19;;;;;;;29.13;20.38;;;7.20;99.90;;;;;;5035890;28;20440;-73
2022/11/23 00:35:44;;;;;;;29.60;20.47;;;7.20;99.90;;;;;;5031694;28;21133;-73
2022/11/23 00:38:11;;;;;;;29.88;20.27;;;7.20;99.90;;;;;;5036211;28;20455;-73
2022/11/23 00:40:36;;;;;;;31.50;21.02;;;7.20;99.90;;;;;;5030451;28;20963;-73
2022/11/23 00:43:02;;;;;;;31.87;21.23;;;7.20;99.90;;;;;;5028907;28;20411;-73
2022/11/23 00:45:28;;;;;;;30.90;21.17;;;7.20;99.90;;;;;;5043591;28;20405;-73
2022/11/23 00:47:53;;;;;;;30.98;21.48;;;7.20;99.90;;;;;;5042155;28;20791;-73
2022/11/23 00:50:19;;;;;;;31.40;21.50;;;7.20;99.90;;;;;;5029679;28;20431;-73
2022/11/23 00:52:44;;;;;;;32.20;21.35;;;7.20;99.90;;;;;;5031539;28;20425;-73
2022/11/23 00:55:10;;;;;;;34.80;22.20;;;7.20;99.90;;;;;;5041565;28;20906;-73
2022/11/23 00:57:35;;;;;;;30.92;21.55;;;7.30;99.90;;;;;;5028842;28;20407;-73
2022/11/23 01:00:01;;;;;;;31.07;21.73;;;7.30;99.90;;;;;;5031675;28;20456;-73
2022/11/23 01:02:27;;;;;;;31.92;22.70;;;7.30;99.90;;;;;;5030191;28;20421;-73
2022/11/23 01:04:52;;;;;;;33.75;22.45;;;7.30;99.90;;;;;;5024366;28;20409;-73
2022/11/23 01:07:18;;;;;;;31.27;22.47;;;7.30;99.90;;;;;;5047789;28;20868;-73
2022/11/23 01:09:44;;;;;;;33.78;22.25;;;7.30;99.90;;;;;;5036132;28;20435;-73
2022/11/23 01:12:09;;;;;;;34.23;22.73;;;7.30;99.90;;;;;;5042586;28;20407;-73
2022/11/23 01:14:35;;;;;;;36.33;23.50;;;7.30;99.90;;;;;;5041857;28;20896;-73
2022/11/23 01:17:00;;;;;;;35.97;23.43;;;7.30;99.90;;;;;;5028967;28;20403;-73
2022/11/23 01:19:26;;;;;;;36.40;23.65;;;7.30;99.90;;;;;;5043149;28;20850;-74
2022/11/23 01:21:51;;;;;;;38.90;24.07;;;7.30;99.90;;;;;;5042231;28;20430;-73
2022/11/23 01:24:19;;;;;;;36.55;23.50;;;7.30;99.90;;;;;;5029393;28;20403;-73
2022/11/23 01:26:53;;;;;;;37.00;23.83;;;7.30;99.90;;;;;;5035343;28;20401;-73
2022/11/23 01:29:19;;;;;;;38.00;24.92;;;7.30;99.90;;;;;;5049234;28;20420;-73
2022/11/23 01:31:44;;;;;;;39.63;24.77;;;7.30;99.90;;;;;;5040902;28;20510;-73
2022/11/23 01:34:11;;;;;;;40.83;25.17;;;7.30;99.90;;;;;;5012505;28;21409;-73
2022/11/23 01:36:37;;;;;;;38.40;24.83;;;7.40;99.90;;;;;;5028027;28;20411;-73
2022/11/23 01:39:04;;;;;;;37.85;24.70;;;7.30;99.90;;;;;;5029636;28;20412;-73
2022/11/23 01:41:36;;;;;;;38.27;24.97;;;7.40;99.90;;;;;;5029180;28;20404;-74
2022/11/23 01:44:21;;;;;;;33.83;24.43;;;7.40;99.90;;;;;;5029187;28;20932;-74
2022/11/23 01:46:47;;;;;;;37.75;24.88;;;7.40;99.90;;;;;;5028909;28;20449;-74
2022/11/23 01:49:13;;;;;;;35.40;24.67;;;7.40;99.90;;;;;;5033608;28;20409;-73
2022/11/23 01:51:45;;;;;;;37.33;24.20;;;7.40;99.90;;;;;;5048379;28;20993;-73
2022/11/23 01:54:15;;;;;;;38.97;24.70;;;7.40;99.90;;;;;;5040933;28;20434;-73
2022/11/23 01:56:45;;;;;;;38.28;24.98;;;7.40;99.90;;;;;;5035352;28;20407;-73
2022/11/23 01:59:14;;;;;;;38.25;25.13;;;7.40;99.90;;;;;;4998336;28;20469;-74
2022/11/23 02:01:41;;;;;;;39.30;25.15;;;7.50;99.90;;;;;;5024856;28;20528;-74
2022/11/23 02:04:13;;;;;;;41.40;25.48;;;7.50;99.90;;;;;;5008331;28;20806;-74
2022/11/23 02:06:39;;;;;;;36.78;23.75;;;7.50;99.90;;;;;;5048436;28;20879;-74
2022/11/23 02:09:06;;;;;;;38.37;24.13;;;7.40;99.90;;;;;;5046571;28;20417;-74
2022/11/23 02:11:32;;;;;;;36.97;24.48;;;7.50;99.90;;;;;;5039127;28;20526;-74
2022/11/23 02:13:59;;;;;;;42.67;25.35;;;7.50;99.90;;;;;;5036615;28;20966;-74
2022/11/23 02:16:24;;;;;;;37.83;24.58;;;7.50;99.90;;;;;;5010667;28;20495;-74
2022/11/23 02:18:52;;;;;;;36.20;24.02;;;7.50;99.90;;;;;;5018509;28;20424;-74
2022/11/23 02:21:17;;;;;;;37.97;24.90;;;7.50;99.90;;;;;;5016363;28;20868;-74
2022/11/23 02:23:43;;;;;;;38.60;24.73;;;7.60;99.90;;;;;;5002317;28;20425;-73
2022/11/23 02:26:13;;;;;;;38.73;24.93;;;7.50;99.90;;;;;;5046236;28;20401;-74
2022/11/23 02:28:44;;;;;;;40.33;24.77;;;7.50;99.90;;;;;;5037236;28;20406;-74
2022/11/23 02:31:10;;;;;;;36.47;24.67;;;7.50;99.90;;;;;;5026987;28;20902;-74
2022/11/23 02:33:39;;;;;;;38.10;24.33;;;7.50;99.90;;;;;;5038570;28;20429;-74
2022/11/23 02:36:50;;;;;;;40.58;24.83;;;7.50;99.90;;;;;;5035287;28;20402;-74
2022/11/23 02:39:17;;;;;;;39.50;24.73;;;7.60;99.90;;;;;;4951232;28;20522;-73
2022/11/23 02:41:49;;;;;;;38.37;24.87;;;7.50;99.90;;;;;;5002834;28;20409;-74
2022/11/23 02:44:49;;;;;;;37.38;24.15;;;7.50;99.90;;;;;;5016427;28;20411;-74
2022/11/23 02:47:15;;;;;;;36.45;24.75;;;7.50;99.90;;;;;;5025048;28;20426;-74
2022/11/23 02:49:41;;;;;;;40.30;24.80;;;7.60;99.90;;;;;;5031468;28;20764;-74
2022/11/23 02:52:08;;;;;;;39.97;24.90;;;7.60;99.90;;;;;;5001458;28;20438;-74
2022/11/23 02:54:34;;;;;;;37.78;24.45;;;7.60;99.90;;;;;;5015736;28;20422;-74
2022/11/23 02:56:59;;;;;;;39.70;25.20;;;7.60;99.90;;;;;;5049450;28;20405;-73
2022/11/23 02:59:25;;;;;;;45.20;25.27;;;7.60;99.90;;;;;;5014414;28;20430;-74
2022/11/23 03:01:51;;;;;;;38.55;24.92;;;7.60;99.90;;;;;;5036160;28;20932;-74
2022/11/23 03:04:17;;;;;;;39.53;24.15;;;7.60;99.90;;;;;;5051401;28;20409;-74
2022/11/23 03:06:43;;;;;;;41.90;25.00;;;7.60;99.90;;;;;;5033826;28;20399;-74
2022/11/23 03:09:08;;;;;;;42.90;25.33;;;7.60;99.90;;;;;;5042400;28;20924;-74
2022/11/23 03:11:34;;;;;;;39.17;25.63;;;7.60;99.90;;;;;;5048285;28;20428;-74
2022/11/23 03:14:00;;;;;;;39.75;24.98;;;7.60;99.90;;;;;;5040191;28;20395;-74
2022/11/23 03:16:25;;;;;;;41.57;25.37;;;7.60;99.90;;;;;;5049683;28;20397;-73
2022/11/23 03:18:51;;;;;;;42.00;24.65;;;7.60;99.90;;;;;;5048702;28;20501;-74
2022/11/23 03:21:16;;;;;;;42.72;26.33;;;7.60;99.90;;;;;;5050452;28;20402;-74
2022/11/23 03:23:42;;;;;;;42.60;25.50;;;7.60;99.90;;;;;;5023999;28;20927;-74
2022/11/23 03:26:08;;;;;;;44.65;25.95;;;7.60;99.90;;;;;;5032118;28;20411;-74
2022/11/23 03:28:34;;;;;;;43.30;25.73;;;7.60;99.90;;;;;;4997797;28;20421;-74
2022/11/23 03:30:59;;;;;;;41.20;25.67;;;7.60;99.90;;;;;;5029533;28;20432;-74
2022/11/23 03:33:25;;;;;;;42.28;24.98;;;7.60;99.90;;;;;;5050192;28;20417;-74
2022/11/23 03:35:51;;;;;;;43.30;25.60;;;7.60;99.90;;;;;;5041897;28;20436;-74
2022/11/23 03:38:16;;;;;;;47.08;26.05;;;7.60;99.90;;;;;;5017288;28;20907;-74
2022/11/23 03:40:45;;;;;;;43.93;26.17;;;7.60;99.90;;;;;;5030714;28;20435;-74
2022/11/23 03:43:12;;;;;;;43.60;25.77;;;7.60;99.90;;;;;;5014041;28;20413;-74
2022/11/23 03:45:38;;;;;;;42.28;25.45;;;7.60;99.90;;;;;;5022704;28;20405;-74
2022/11/23 03:48:04;;;;;;;41.35;25.55;;;7.60;99.90;;;;;;5048062;28;20405;-74
2022/11/23 03:50:29;;;;;;;43.42;25.35;;;7.60;99.90;;;;;;5031571;28;20517;-74
2022/11/23 03:52:55;;;;;;;39.07;24.60;;;7.60;99.90;;;;;;5031354;28;20812;-73
2022/11/23 03:55:21;;;;;;;37.20;24.60;;;7.60;99.90;;;;;;5031853;28;20399;-74
2022/11/23 03:57:48;;;;;;;41.40;24.58;;;7.70;99.90;;;;;;5029385;28;20753;-74
2022/11/23 04:00:14;;;;;;;38.60;24.05;;;7.60;99.90;;;;;;5050624;28;20417;-74
2022/11/23 04:02:42;;;;;;;37.47;23.23;;;7.70;99.90;;;;;;5017366;28;20411;-74
2022/11/23 04:05:08;;;;;;;37.67;23.00;;;7.70;99.90;;;;;;5023621;28;20727;-74
2022/11/23 04:07:34;;;;;;;36.77;23.93;;;7.70;99.90;;;;;;5014030;28;20490;-74
2022/11/23 04:09:59;;;;;;;40.00;24.25;;;7.70;99.90;;;;;;5017713;28;20435;-74
2022/11/23 04:12:25;;;;;;;35.58;22.33;;;7.70;99.90;;;;;;5013822;28;20420;-73
2022/11/23 04:14:51;;;;;;;38.53;22.70;;;7.70;99.90;;;;;;5015685;28;20427;-74
2022/11/23 04:17:17;;;;;;;33.60;21.50;;;7.70;99.90;;;;;;5022553;28;21529;-74
2022/11/23 04:19:42;;;;;;;34.78;21.60;;;7.70;99.90;;;;;;5020391;28;20495;-74
2022/11/23 04:22:08;;;;;;;32.93;20.73;;;7.70;99.90;;;;;;5023342;28;20428;-74
2022/11/23 04:24:34;;;;;;;34.67;20.27;;;7.70;99.90;;;;;;5011000;28;20408;-74
2022/11/23 04:26:59;;;;;;;35.00;19.93;;;7.80;99.90;;;;;;5014641;28;21078;-74
2022/11/23 04:29:25;;;;;;;36.17;19.67;;;7.70;99.90;;;;;;5029176;28;20481;-74
2022/11/23 04:31:50;;;;;;;32.63;20.03;;;7.70;99.90;;;;;;5010785;28;20524;-74
2022/11/23 04:34:16;;;;;;;35.37;20.10;;;7.70;99.90;;;;;;5011908;28;20416;-74
2022/11/23 04:36:42;;;;;;;36.28;20.45;;;7.60;99.90;;;;;;5021387;28;20412;-74
2022/11/23 04:39:09;;;;;;;37.27;21.20;;;7.60;99.90;;;;;;5024897;28;20497;-74
2022/11/23 04:41:34;;;;;;;37.47;22.25;;;7.60;99.90;;;;;;5027410;28;20415;-74
2022/11/23 04:44:00;;;;;;;39.88;22.98;;;7.60;99.90;;;;;;5018757;28;20410;-74
2022/11/23 04:46:26;;;;;;;37.70;22.37;;;7.60;99.90;;;;;;5023214;28;20415;-74
2022/11/23 04:48:51;;;;;;;40.05;22.48;;;7.60;99.90;;;;;;5025541;28;20402;-73
2022/11/23 04:51:17;;;;;;;39.83;21.63;;;7.60;99.90;;;;;;4996228;28;20438;-73
2022/11/23 04:53:42;;;;;;;39.53;22.55;;;7.50;99.90;;;;;;5027423;28;20418;-74
2022/11/23 04:56:08;;;;;;;41.03;22.60;;;7.60;99.90;;;;;;5022807;28;20465;-74
2022/11/23 04:58:35;;;;;;;38.45;21.80;;;7.50;99.90;;;;;;5019660;28;20445;-74
2022/11/23 05:01:02;;;;;;;40.45;22.50;;;7.60;99.90;;;;;;5013294;28;20407;-74
2022/11/23 05:03:27;;;;;;;35.97;21.75;;;7.50;99.90;;;;;;5018175;28;20409;-74
2022/11/23 05:05:53;;;;;;;36.42;21.80;;;7.60;99.90;;;;;;5024674;28;20913;-74
2022/11/23 05:08:18;;;;;;;35.93;21.50;;;7.50;99.90;;;;;;5016689;28;20498;-74
2022/11/23 05:10:44;;;;;;;37.17;21.05;;;7.60;99.90;;;;;;5029117;28;20796;-74
2022/11/23 05:13:09;;;;;;;37.13;20.63;;;7.60;99.90;;;;;;5028522;28;20415;-73
2022/11/23 05:15:35;;;;;;;39.00;21.67;;;7.60;99.90;;;;;;5028818;28;20399;-74
2022/11/23 05:18:06;;;;;;;34.83;20.20;;;7.60;99.90;;;;;;5028741;28;20473;-73
2022/11/23 05:20:32;;;;;;;36.28;21.27;;;7.60;99.90;;;;;;5027107;28;20528;-74
2022/11/23 05:22:57;;;;;;;39.53;21.50;;;7.60;99.90;;;;;;5037802;28;20492;-74
2022/11/23 05:25:24;;;;;;;37.50;20.50;;;7.60;99.90;;;;;;5047090;28;20414;-74
2022/11/23 05:27:50;;;;;;;37.85;20.77;;;7.60;99.90;;;;;;5048711;28;20410;-74
2022/11/23 05:30:16;;;;;;;38.05;21.27;;;7.60;99.90;;;;;;5016750;28;20559;-74
2022/11/23 05:32:41;;;;;;;37.28;21.35;;;7.60;99.90;;;;;;5038266;28;20506;-74
2022/11/23 05:35:08;;;;;;;42.67;21.83;;;7.70;99.90;;;;;;5027582;28;20472;-74
2022/11/23 05:37:34;;;;;;;36.53;21.90;;;7.70;99.90;;;;;;5028647;28;20411;-74
2022/11/23 05:39:59;;;;;;;37.53;21.13;;;7.70;99.90;;;;;;5027228;28;20419;-74
2022/11/23 05:42:25;;;;;;;40.03;21.27;;;7.70;99.90;;;;;;5028326;28;20402;-73
2022/11/23 05:44:51;;;;;;;40.30;21.63;;;7.70;99.90;;;;;;5024064;28;20433;-74
2022/11/23 05:47:16;;;;;;;40.47;20.73;;;7.70;99.90;;;;;;5015541;28;20406;-74
2022/11/23 05:49:42;;;;;;;41.20;22.00;;;7.70;99.90;;;;;;5030348;28;20473;-74
2022/11/23 05:52:07;;;;;;;36.87;21.73;;;7.70;99.90;;;;;;5047616;28;20401;-74
2022/11/23 05:54:33;;;;;;;42.42;21.52;;;7.70;99.90;;;;;;5041525;28;20409;-74
2022/11/23 05:56:59;;;;;;;43.80;21.70;;;7.70;99.90;;;;;;5039093;28;20399;-74
2022/11/23 05:59:24;;;;;;;40.88;21.90;;;7.80;99.90;;;;;;5041196;28;20415;-74
2022/11/23 06:01:50;;;;;;;40.60;21.77;;;7.70;99.90;;;;;;5019742;28;20421;-74
2022/11/23 06:04:15;;;;;;;41.75;22.35;;;7.80;99.90;;;;;;5028016;28;20422;-74
2022/11/23 06:06:41;;;;;;;40.03;21.93;;;7.80;99.90;;;;;;5018038;28;20992;-73
2022/11/23 06:09:07;;;;;;;43.00;22.20;;;7.80;99.90;;;;;;5027446;28;20475;-72
2022/11/23 06:11:32;;;;;;;36.60;21.50;;;7.80;99.90;;;;;;5017004;28;20435;-73
2022/11/23 06:13:58;;;;;;;36.67;21.63;;;7.80;99.90;;;;;;5029711;28;20403;-75
2022/11/23 06:16:23;;;;;;;38.77;21.90;;;7.80;99.90;;;;;;5037198;28;20406;-73
2022/11/23 06:18:49;;;;;;;41.97;21.88;;;7.80;99.90;;;;;;5040488;28;20411;-73
2022/11/23 06:21:14;;;;;;;38.90;21.10;;;7.90;99.90;;;;;;5048207;28;20459;-73
2022/11/23 06:23:40;;;;;;;40.38;21.88;;;7.90;99.90;;;;;;5045514;28;20398;-75
2022/11/23 06:26:06;;;;;;;37.03;21.00;;;7.90;99.90;;;;;;5012026;28;20415;-75
2022/11/23 06:28:34;;;;;;;40.67;21.17;;;7.90;99.90;;;;;;5012092;28;20412;-73
2022/11/23 06:31:05;;;;;;;39.70;21.17;;;7.90;99.90;;;;;;5026996;28;20459;-72
2022/11/23 06:33:31;;;;;;;40.17;21.45;;;8.00;99.90;;;;;;5026700;28;20761;-73
2022/11/23 06:35:59;;;;;;;39.92;21.60;;;8.00;99.90;;;;;;5037789;28;20484;-75
2022/11/23 06:38:25;;;;;;;38.00;20.63;;;8.00;99.90;;;;;;5023860;28;20618;-73
2022/11/23 06:40:51;;;;;;;39.05;21.52;;;7.90;99.90;;;;;;5028335;28;20487;-73
2022/11/23 06:43:16;;;;;;;39.72;20.98;;;7.90;99.90;;;;;;5004639;28;20915;-73
2022/11/23 06:45:42;;;;;;;37.43;20.50;;;7.90;99.90;;;;;;5018714;28;20456;-73
2022/11/23 06:48:08;;;;;;;35.55;19.95;;;7.90;99.90;;;;;;5027927;28;20411;-75
2022/11/23 06:50:33;;;;;;;33.20;18.93;;;7.90;99.90;;;;;;5038438;28;20422;-75
2022/11/23 06:52:59;;;;;;;32.55;19.05;;;7.90;99.90;;;;;;5043900;28;20494;-76
2022/11/23 06:55:25;;;;;;;32.63;18.60;;;7.90;99.90;;;;;;5027855;28;20396;-73
2022/11/23 06:57:51;;;;;;;32.80;18.37;;;7.90;99.90;;;;;;5009954;28;20446;-75
2022/11/23 07:00:17;;;;;;;30.80;17.65;;;7.90;99.90;;;;;;5038079;28;20432;-73
2022/11/23 07:02:49;;;;;;;31.38;17.63;;;7.90;99.90;;;;;;5046405;28;20440;-75
2022/11/23 07:05:15;;;;;;;29.90;16.80;;;7.90;99.90;;;;;;5019815;28;20422;-73
2022/11/23 07:07:40;;;;;;;32.45;16.67;;;7.90;99.90;;;;;;5027705;28;20481;-76
2022/11/23 07:10:07;;;;;;;26.73;16.37;;;7.90;99.90;;;;;;5036387;28;20783;-73
2022/11/23 07:12:32;;;;;;;26.02;15.52;;;7.90;99.90;;;;;;5029683;28;20414;-73
2022/11/23 07:14:58;;;;;;;28.20;15.57;;;7.90;99.90;;;;;;5032631;28;20815;-73
2022/11/23 07:17:23;;;;;;;28.65;16.15;;;7.90;99.90;;;;;;5030469;28;20451;-72
2022/11/23 07:19:49;;;;;;;25.73;14.17;;;7.90;99.90;;;;;;5019815;28;20422;-72
2022/11/23 07:22:15;;;;;;;24.38;14.73;;;7.90;99.90;;;;;;5022052;28;20761;-73
2022/11/23 07:24:40;;;;;;;25.63;14.60;;;7.90;99.90;;;;;;5030147;28;20488;-76
2022/11/23 07:27:06;;;;;;;25.35;13.90;;;7.90;99.90;;;;;;5002000;28;20436;-73
2022/11/23 07:29:31;;;;;;;24.67;14.07;;;7.80;99.90;;;;;;5044203;28;20420;-73
2022/11/23 07:31:57;;;;;;;22.90;12.95;;;7.90;99.90;;;;;;4994556;28;20431;-73
2022/11/23 07:34:22;;;;;;;24.37;13.23;;;7.80;99.90;;;;;;5028925;28;20917;-73
2022/11/23 07:36:48;;;;;;;22.87;12.77;;;7.90;99.90;;;;;;5047397;28;20412;-73
2022/11/23 07:39:14;;;;;;;23.07;13.07;;;7.80;99.90;;;;;;5040214;28;20414;-74
2022/11/23 07:41:39;;;;;;;20.80;12.27;;;7.80;99.90;;;;;;5016278;28;21286;-73
2022/11/23 07:44:05;;;;;;;23.67;12.07;;;7.90;99.90;;;;;;5014492;28;20407;-73
2022/11/23 07:46:30;;;;;;;21.02;12.13;;;7.80;99.90;;;;;;5015243;28;20890;-73
2022/11/23 07:49:00;;;;;;;21.80;12.33;;;7.90;99.90;;;;;;5041561;28;20401;-73
2022/11/23 07:51:26;;;;;;;22.13;13.02;;;7.90;99.90;;;;;;5050484;28;20806;-73
2022/11/23 07:53:52;;;;;;;23.35;13.75;;;7.90;99.90;;;;;;5042866;28;20411;-73
2022/11/23 07:56:17;;;;;;;27.33;13.83;;;7.90;99.90;;;;;;5050909;28;20766;-73
2022/11/23 07:58:43;;;;;;;23.20;12.73;;;7.90;99.90;;;;;;5041611;28;20761;-73
2022/11/23 08:01:10;;;;;;;25.67;12.23;;;7.90;99.90;;;;;;5033372;28;20413;-73
2022/11/23 08:03:35;;;;;;;23.00;11.88;;;7.90;99.90;;;;;;5041959;28;20471;-75
2022/11/23 08:06:01;;;;;;;20.53;10.63;;;7.90;99.90;;;;;;5032354;28;20413;-74
2022/11/23 08:08:26;;;;;;;21.08;10.23;;;7.90;99.90;;;;;;5050758;28;20410;-74
2022/11/23 08:10:52;;;;;;;18.83;10.60;;;7.90;99.90;;;;;;5045381;28;20433;-73
2022/11/23 08:13:18;;;;;;;20.88;10.32;;;7.90;99.90;;;;;;5032741;28;21019;-74
2022/11/23 08:15:44;;;;;;;23.63;9.85;;;7.90;99.90;;;;;;5050333;28;20401;-73
2022/11/23 08:18:10;;;;;;;20.38;10.20;;;7.90;99.90;;;;;;5025250;28;20465;-73
2022/11/23 08:20:35;;;;;;;18.07;9.77;;;8.00;99.90;;;;;;5031273;28;20410;-73
2022/11/23 08:23:01;;;;;;;18.23;9.38;;;8.00;99.90;;;;;;5031092;28;20908;-73
2022/11/23 08:25:28;;;;;;;18.97;9.00;;;7.90;99.90;;;;;;5030911;28;20503;-73
2022/11/23 08:27:59;;;;;;;19.95;8.65;;;7.90;99.90;;;;;;5022682;28;20448;-73
2022/11/23 08:30:25;;;;;;;19.10;9.23;;;8.00;99.90;;;;;;5041676;28;20437;-73
2022/11/23 08:32:51;;;;;;;23.52;9.02;;;8.00;99.90;;;;;;5038892;28;20415;-73
2022/11/23 08:35:17;;;;;;;18.17;8.13;;;8.00;99.90;;;;;;5047041;28;20413;-73
2022/11/23 08:37:42;;;;;;;22.00;8.52;;;8.00;99.90;;;;;;5045686;28;20407;-73
2022/11/23 08:40:08;;;;;;;21.67;8.00;;;8.00;99.90;;;;;;5046747;28;20433;-73
2022/11/23 08:42:34;;;;;;;20.20;8.60;;;8.00;99.90;;;;;;5049884;28;20397;-73
2022/11/23 08:45:02;;;;;;;19.95;8.68;;;8.10;99.90;;;;;;5049540;28;20412;-73
2022/11/23 08:47:28;;;;;;;18.48;8.05;;;8.10;99.90;;;;;;5042689;28;20485;-73
2022/11/23 08:49:53;;;;;;;17.90;7.73;;;8.10;99.90;;;;;;5049187;28;20481;-73
2022/11/23 08:52:19;;;;;;;16.63;7.07;;;8.10;99.90;;;;;;5037644;28;20498;-73
2022/11/23 08:54:44;;;;;;;19.23;7.77;;;8.10;99.90;;;;;;5001405;28;20409;-73
2022/11/23 08:57:10;;;;;;;15.70;7.63;;;8.20;99.90;;;;;;5039550;28;20457;-73
2022/11/23 08:59:35;;;;;;;18.73;6.90;;;8.20;99.90;;;;;;5013152;28;20506;-74
2022/11/23 09:02:01;;;;;;;18.52;6.80;;;8.20;99.90;;;;;;5034684;28;20472;-73
2022/11/23 09:04:28;;;;;;;14.40;6.63;;;8.30;99.90;;;;;;5017389;28;20424;-73
2022/11/23 09:06:53;;;;;;;17.38;6.75;;;8.30;99.90;;;;;;5038641;28;20422;-73
2022/11/23 09:09:19;;;;;;;14.80;6.55;;;8.30;99.90;;;;;;4997626;28;20403;-73
2022/11/23 09:11:45;;;;;;;13.70;6.27;;;8.40;99.90;;;;;;5031343;28;20494;-74
2022/11/23 09:14:11;;;;;;;17.30;6.68;;;8.40;99.90;;;;;;5040071;28;20878;-74
2022/11/23 09:16:36;;;;;;;14.75;5.70;;;8.50;99.90;;;;;;5038393;28;20418;-74
2022/11/23 09:19:02;;;;;;;16.63;6.30;;;8.60;99.90;;;;;;5043193;28;20403;-74
2022/11/23 09:21:32;;;;;;;12.65;5.82;;;8.70;99.90;;;;;;5039709;28;20520;-74
2022/11/23 09:23:58;;;;;;;15.47;6.27;;;8.60;99.90;;;;;;5035261;28;20794;-74
2022/11/23 09:26:24;;;;;;;16.00;5.80;;;8.60;99.90;;;;;;5031958;28;20534;-73
2022/11/23 09:28:49;;;;;;;15.07;5.97;;;8.60;99.90;;;;;;4997391;28;20399;-73
2022/11/23 09:31:15;;;;;;;13.30;5.75;;;8.60;99.90;;;;;;5032637;28;20439;-73
2022/11/23 09:33:41;;;;;;;17.15;6.22;;;8.50;99.90;;;;;;5033435;28;20504;-73
2022/11/23 09:36:07;;;;;;;18.83;6.20;;;8.60;99.90;;;;;;5031345;28;20397;-73
2022/11/23 09:38:33;;;;;;;15.63;6.15;;;8.50;99.90;;;;;;5027510;28;20921;-73
2022/11/23 09:41:25;;;;;;;18.42;6.13;;;8.50;99.90;;;;;;5029200;28;20436;-73
2022/11/23 09:44:23;;;;;;;15.90;6.90;;;8.50;99.90;;;;;;5029376;28;20438;-73
2022/11/23 09:47:10;;;;;;;15.35;6.80;;;8.50;99.90;;;;;;4979918;28;20422;-73
2022/11/23 09:49:59;;;;;;;18.70;6.90;;;8.50;99.90;;;;;;5028834;28;20921;-73
2022/11/23 09:52:24;;;;;;;16.02;6.18;;;8.50;99.90;;;;;;5016420;28;20762;-73
2022/11/23 09:54:55;;;;;;;18.83;6.63;;;8.60;99.90;;;;;;5012457;28;20418;-73
2022/11/23 09:57:25;;;;;;;21.58;6.88;;;8.60;99.90;;;;;;5012279;28;20442;-73
2022/11/23 10:00:21;;;;;;;17.73;6.65;;;8.60;99.90;;;;;;5047551;28;20444;-73
2022/11/23 10:02:46;;;;;;;16.63;6.15;;;8.70;99.90;;;;;;5029842;28;20419;-73
2022/11/23 10:05:22;;;;;;;15.77;5.63;;;8.80;99.90;;;;;;5039325;28;20401;-73
2022/11/23 10:08:19;;;;;;;15.13;5.83;;;8.90;99.90;;;;;;5042932;28;20455;-73
2022/11/23 10:10:53;;;;;;;14.77;5.43;;;9.10;99.90;;;;;;5042123;28;20447;-73
2022/11/23 10:13:33;;;;;;;18.05;5.50;;;9.20;99.90;;;;;;5029641;28;20421;-73
2022/11/23 10:16:29;;;;;;;16.50;5.35;;;9.30;99.90;;;;;;5046682;28;20750;-73
2022/11/23 10:19:01;;;;;;;14.10;5.03;;;9.30;99.90;;;;;;5008970;28;20419;-73
2022/11/23 10:21:46;;;;;;;14.60;5.25;;;9.40;99.90;;;;;;5029882;28;20415;-73
2022/11/23 10:24:18;;;;;;;13.75;4.47;;;9.40;99.90;;;;;;5028125;28;20411;-73
2022/11/23 10:26:47;;;;;;;14.05;4.75;;;9.40;99.90;;;;;;4996280;28;20419;-73
2022/11/23 10:29:28;;;;;;;13.17;4.43;;;9.40;99.90;;;;;;5047572;28;20409;-74
2022/11/23 10:31:54;;;;;;;15.05;4.13;;;9.40;99.90;;;;;;5007421;28;20488;-74
2022/11/23 10:34:29;;;;;;;10.13;4.37;;;9.50;99.90;;;;;;5029045;28;20399;-73
2022/11/23 10:36:55;;;;;;;17.65;4.70;;;9.50;99.90;;;;;;5040866;28;20419;-73
2022/11/23 10:39:26;;;;;;;15.48;4.45;;;9.50;99.90;;;;;;5010593;28;20472;-73
2022/11/23 10:41:53;;;;;;;14.38;5.05;;;9.60;99.90;;;;;;5029008;28;20469;-73
2022/11/23 10:44:24;;;;;;;13.43;4.75;;;9.60;99.90;;;;;;5039675;28;20919;-74
2022/11/23 10:46:50;;;;;;;15.95;5.65;;;9.60;99.90;;;;;;5041317;28;20493;-74
2022/11/23 10:49:16;;;;;;;16.95;6.00;;;9.50;99.90;;;;;;5034898;28;20511;-74
2022/11/23 10:52:27;;;;;;;16.35;5.55;;;9.50;99.90;;;;;;5021925;28;20466;-72
2022/11/23 10:54:56;;;;;;;18.58;5.43;;;9.50;99.90;;;;;;5012982;28;20413;-73
2022/11/23 10:57:35;;;;;;;15.55;5.85;;;9.50;99.90;;;;;;5030705;28;20775;-73
2022/11/23 11:00:13;;;;;;;12.52;5.20;;;9.50;99.90;;;;;;5016678;28;20494;-73
2022/11/23 11:02:50;;;;;;;15.23;5.03;;;9.50;99.90;;;;;;5028502;28;20496;-73
2022/11/23 11:05:36;;;;;;;18.07;5.10;;;9.50;99.90;;;;;;5037579;28;20496;-73
2022/11/23 11:08:19;;;;;;;13.75;4.57;;;9.50;99.90;;;;;;5027517;28;20638;-73
2022/11/23 11:11:02;;;;;;;14.43;3.67;;;9.40;99.90;;;;;;5014089;28;20428;-73
2022/11/23 11:13:43;;;;;;;12.23;3.30;;;9.40;99.90;;;;;;5012603;28;20421;-76
2022/11/23 11:16:24;;;;;;;11.43;3.33;;;9.40;99.90;;;;;;4991249;28;20427;-72
2022/11/23 11:18:50;;;;;;;12.60;3.42;;;9.30;99.90;;;;;;4987380;28;20411;-75
2022/11/23 11:21:20;;;;;;;13.77;3.28;;;9.30;99.90;;;;;;5031634;28;20434;-73
2022/11/23 11:23:53;;;;;;;14.57;3.70;;;9.30;99.90;;;;;;5013084;28;21013;-73
2022/11/23 11:26:24;;;;;;;13.30;3.43;;;9.30;99.90;;;;;;5031637;28;20406;-73
2022/11/23 11:28:52;;;;;;;14.57;3.38;;;9.30;99.90;;;;;;5031257;28;20396;-73
2022/11/23 11:31:32;;;;;;;10.38;3.25;;;9.30;99.90;;;;;;5010469;28;20547;-75
2022/11/23 11:34:11;;;;;;;11.07;2.93;;;9.30;99.90;;;;;;5013821;28;20503;-76
2022/11/23 11:36:59;;;;;;;14.98;3.17;;;9.40;99.90;;;;;;5010837;28;20416;-75
2022/11/23 11:39:34;;;;;;;14.02;2.88;;;9.30;99.90;;;;;;5014257;28;20440;-72
2022/11/23 11:42:06;;;;;;;13.23;3.10;;;9.30;99.90;;;;;;5013372;28;20506;-73
2022/11/23 11:44:35;;;;;;;11.23;2.72;;;9.30;99.90;;;;;;5012959;28;20928;-75
2022/11/23 11:47:21;;;;;;;11.95;2.47;;;9.30;99.90;;;;;;5021063;28;20407;-73
2022/11/23 11:49:47;;;;;;;9.88;2.50;;;9.40;99.90;;;;;;5018076;28;20404;-73
2022/11/23 11:52:22;;;;;;;10.70;2.92;;;9.50;99.90;;;;;;5013077;28;20407;-73
2022/11/23 11:55:14;;;;;;;11.60;2.75;;;9.80;99.90;;;;;;5025728;28;20409;-73
2022/11/23 11:57:47;;;;;;;11.55;2.47;;;9.90;99.90;;;;;;4975563;28;20415;-73
2022/11/23 12:00:18;;;;;;;15.57;3.08;;;10.00;99.90;;;;;;5030509;28;20433;-73
2022/11/23 12:03:05;;;;;;;10.93;2.53;;;10.10;99.90;;;;;;5029556;28;20762;-72
2022/11/23 12:05:51;;;;;;;10.70;2.22;;;10.10;99.90;;;;;;5017484;28;20413;-75
2022/11/23 12:08:43;;;;;;;13.88;3.53;;;10.10;99.90;;;;;;5019831;28;20422;-73
2022/11/23 12:11:11;;;;;;;15.20;5.05;;;10.20;99.90;;;;;;5021365;28;20931;-73
2022/11/23 12:13:40;;;;;;;11.70;3.53;;;10.40;99.90;;;;;;5009906;28;20497;-75
2022/11/23 12:16:21;;;;;;;12.73;3.15;;;10.40;99.90;;;;;;5016903;28;20411;-72
2022/11/23 12:19:11;;;;;;;13.95;2.55;;;10.40;99.90;;;;;;5029846;28;20464;-72
2022/11/23 12:22:21;;;;;;;12.50;3.00;;;10.40;99.90;;;;;;5029456;28;20415;-73
2022/11/23 12:25:19;;;;;;;12.43;2.53;;;10.40;99.90;;;;;;5002857;28;20488;-73
2022/11/23 12:28:00;;;;;;;13.67;2.60;;;10.50;99.90;;;;;;4993472;28;20419;-72
2022/11/23 12:30:28;;;;;;;13.02;2.95;;;10.50;99.90;;;;;;5023297;28;20425;-72
2022/11/23 12:33:21;;;;;;;14.68;2.70;;;10.50;99.90;;;;;;5011241;28;20406;-73
2022/11/23 12:36:24;;;;;;;11.93;2.83;;;10.40;99.90;;;;;;5017245;28;20407;-73
2022/11/23 12:39:17;;;;;;;14.55;2.70;;;10.40;99.90;;;;;;5019539;28;20412;-75
2022/11/23 12:41:53;;;;;;;12.60;3.10;;;10.40;99.90;;;;;;5013053;28;20417;-74
2022/11/23 12:44:31;;;;;;;15.07;3.22;;;10.40;99.90;;;;;;5010974;28;20417;-73
2022/11/23 12:47:16;;;;;;;9.48;2.50;;;10.30;99.90;;;;;;4988276;28;20423;-73
2022/11/23 12:49:53;;;;;;;11.05;2.55;;;10.40;99.90;;;;;;5023025;28;20428;-73
2022/11/23 12:52:44;;;;;;;9.32;2.13;;;10.40;99.90;;;;;;5020929;28;20419;-73